createdAt,value
2022-11-16T00:00:51.020Z,10.24
2022-11-16T00:03:41.275Z,10.22
2022-11-16T00:06:31.597Z,10.23
2022-11-16T00:09:23.977Z,10.23
2022-11-16T00:12:13.384Z,10.24
2022-11-16T00:15:02.824Z,10.24
2022-11-16T00:17:53.742Z,10.23
2022-11-16T00:20:43.194Z,10.25
2022-11-16T00:23:32.897Z,10.24
2022-11-16T00:26:23.166Z,10.25
2022-11-16T00:29:16.621Z,10.26
2022-11-16T00:32:06.875Z,10.25
2022-11-16T00:34:57.804Z,10.28
2022-11-16T00:37:48.433Z,10.27
2022-11-16T00:40:38.050Z,10.26
2022-11-16T00:43:28.914Z,10.22
2022-11-16T00:46:18.518Z,10.23
2022-11-16T00:49:08.252Z,10.23
2022-11-16T00:51:59.203Z,10.16
2022-11-16T00:54:49.124Z,10.14
2022-11-16T00:57:38.565Z,10.07
2022-11-16T01:00:28.107Z,10.02
2022-11-16T01:03:17.672Z,9.97
2022-11-16T01:06:15.028Z,9.91
2022-11-16T01:09:05.932Z,9.87
2022-11-16T01:12:10.645Z,9.80
2022-11-16T01:15:00.149Z,9.72
2022-11-16T01:17:50.102Z,9.74
2022-11-16T01:20:42.536Z,9.77
2022-11-16T01:23:31.724Z,9.75
2022-11-16T01:26:22.514Z,9.73
2022-11-16T01:29:11.858Z,9.72
2022-11-16T01:32:06.584Z,9.73
2022-11-16T01:34:56.475Z,9.71
2022-11-16T01:37:49.433Z,9.71
2022-11-16T01:40:39.808Z,9.72
2022-11-16T01:43:30.615Z,9.74
2022-11-16T01:46:26.698Z,9.76
2022-11-16T01:49:20.550Z,9.74
2022-11-16T01:52:18.026Z,9.79
2022-11-16T01:55:09.040Z,9.79
2022-11-16T01:58:18.642Z,9.84
2022-11-16T02:01:12.699Z,9.90
2022-11-16T02:04:12.290Z,9.91
2022-11-16T02:07:18.129Z,9.93
2022-11-16T02:10:20.651Z,9.92
2022-11-16T02:13:29.527Z,9.97
2022-11-16T02:16:34.579Z,9.98
2022-11-16T02:20:14.925Z,10.03
2022-11-16T02:23:53.150Z,10.00
2022-11-16T02:27:31.739Z,9.93
2022-11-16T02:30:23.622Z,9.95
2022-11-16T02:33:18.201Z,9.97
2022-11-16T02:36:13.144Z,9.89
2022-11-16T02:39:08.226Z,9.88
2022-11-16T02:42:00.828Z,9.88
2022-11-16T02:44:55.546Z,9.87
2022-11-16T02:47:48.232Z,9.81
2022-11-16T02:50:40.380Z,9.80
2022-11-16T02:53:33.738Z,9.73
2022-11-16T02:56:24.494Z,9.70
2022-11-16T02:59:17.797Z,9.71
2022-11-16T03:02:26.070Z,9.72
2022-11-16T03:05:32.133Z,9.70
2022-11-16T03:08:31.905Z,9.70
2022-11-16T03:11:42.406Z,9.65
2022-11-16T03:14:40.020Z,9.55
2022-11-16T03:17:33.972Z,9.55
2022-11-16T03:20:29.312Z,9.47
2022-11-16T03:23:18.913Z,9.45
2022-11-16T03:26:13.223Z,9.41
2022-11-16T03:29:09.736Z,9.39
2022-11-16T03:32:10.135Z,9.38
2022-11-16T03:35:07.990Z,9.33
2022-11-16T03:38:01.938Z,9.31
2022-11-16T03:40:52.576Z,9.29
2022-11-16T03:43:44.886Z,9.23
2022-11-16T03:46:35.706Z,9.14
2022-11-16T03:49:25.690Z,9.11
2022-11-16T03:52:18.511Z,9.00
2022-11-16T03:55:11.368Z,8.94
2022-11-16T03:58:01.309Z,8.85
2022-11-16T04:00:50.831Z,8.79
2022-11-16T04:03:40.167Z,8.75
2022-11-16T04:06:49.429Z,8.75
2022-11-16T04:09:55.936Z,8.72
2022-11-16T04:13:05.202Z,8.61
2022-11-16T04:16:12.360Z,8.61
2022-11-16T04:19:19.419Z,8.55
2022-11-16T04:22:35.012Z,8.53
2022-11-16T04:25:28.622Z,8.46
2022-11-16T04:28:21.945Z,8.42
2022-11-16T04:31:35.749Z,8.32
2022-11-16T04:34:47.177Z,8.28
2022-11-16T04:37:56.423Z,8.23
2022-11-16T04:40:53.147Z,8.19
2022-11-16T04:43:45.784Z,8.19
2022-11-16T04:46:52.357Z,8.16
2022-11-16T04:49:41.804Z,8.11
2022-11-16T04:52:31.430Z,8.09
2022-11-16T04:55:21.310Z,8.02
2022-11-16T04:58:12.779Z,7.97
2022-11-16T05:01:03.852Z,7.91
2022-11-16T05:03:53.546Z,7.83
2022-11-16T05:06:43.001Z,7.78
2022-11-16T05:09:32.403Z,7.81
2022-11-16T05:12:24.577Z,7.81
2022-11-16T05:15:19.924Z,7.79
2022-11-16T05:18:11.973Z,7.76
2022-11-16T05:21:02.848Z,7.59
2022-11-16T05:24:15.138Z,7.60
2022-11-16T05:27:06.694Z,7.60
2022-11-16T05:29:56.311Z,7.61
2022-11-16T05:32:46.729Z,7.61
2022-11-16T05:35:39.525Z,7.55
2022-11-16T05:38:29.226Z,7.50
2022-11-16T05:41:21.435Z,7.48
2022-11-16T05:44:11.123Z,7.46
2022-11-16T05:47:01.388Z,7.37
2022-11-16T05:49:51.237Z,7.43
2022-11-16T05:55:36.269Z,7.36
2022-11-16T05:58:25.754Z,7.27
2022-11-16T06:01:15.965Z,7.36
2022-11-16T06:04:05.299Z,7.33
2022-11-16T06:06:55.390Z,7.28
2022-11-16T06:09:52.000Z,7.29
2022-11-16T06:12:43.999Z,7.32
2022-11-16T06:15:33.263Z,7.31
2022-11-16T06:18:23.316Z,7.30
2022-11-16T06:21:14.389Z,7.25
2022-11-16T06:24:09.001Z,7.24
2022-11-16T06:27:00.553Z,7.17
2022-11-16T06:29:50.244Z,7.19
2022-11-16T06:32:40.126Z,7.15
2022-11-16T06:35:30.806Z,7.18
2022-11-16T06:38:20.800Z,7.20
2022-11-16T06:41:12.349Z,7.19
2022-11-16T06:44:08.325Z,7.17
2022-11-16T06:47:00.768Z,7.18
2022-11-16T06:49:50.538Z,7.15
2022-11-16T06:52:43.958Z,7.09
2022-11-16T06:55:33.895Z,7.03
2022-11-16T06:58:25.833Z,7.02
2022-11-16T07:01:16.562Z,6.97
2022-11-16T07:04:12.016Z,6.93
2022-11-16T07:07:03.823Z,6.89
2022-11-16T07:09:55.227Z,6.87
2022-11-16T07:12:44.654Z,6.81
2022-11-16T07:15:36.196Z,6.80
2022-11-16T07:18:27.244Z,6.83
2022-11-16T07:21:18.613Z,6.82
2022-11-16T07:24:08.536Z,6.82
2022-11-16T07:26:58.501Z,6.82
2022-11-16T07:29:51.020Z,6.78
2022-11-16T07:33:00.957Z,6.72
2022-11-16T07:36:29.842Z,6.70
2022-11-16T07:39:21.930Z,6.72
2022-11-16T07:42:11.904Z,6.67
2022-11-16T07:45:27.428Z,6.65
2022-11-16T07:48:21.038Z,6.65
2022-11-16T07:51:38.562Z,6.67
2022-11-16T07:54:48.313Z,6.65
2022-11-16T07:57:38.395Z,6.68
2022-11-16T08:00:31.081Z,6.67
2022-11-16T08:03:30.167Z,6.69
2022-11-16T08:06:25.093Z,6.73
2022-11-16T08:09:17.268Z,6.78
2022-11-16T08:12:06.936Z,6.78
2022-11-16T08:14:56.956Z,6.81
2022-11-16T08:17:46.506Z,6.80
2022-11-16T08:20:36.701Z,6.77
2022-11-16T08:23:26.409Z,6.73
2022-11-16T08:26:19.396Z,6.71
2022-11-16T08:29:15.323Z,6.75
2022-11-16T08:32:10.259Z,6.76
2022-11-16T08:34:59.751Z,6.77
2022-11-16T08:37:49.103Z,6.79
2022-11-16T08:40:38.707Z,6.76
2022-11-16T08:43:30.481Z,6.77
2022-11-16T08:46:19.942Z,6.82
2022-11-16T08:49:14.243Z,6.83
2022-11-16T08:52:03.854Z,6.87
2022-11-16T08:54:54.439Z,6.89
2022-11-16T08:57:44.120Z,6.89
2022-11-16T09:00:37.177Z,6.90
2022-11-16T09:03:26.544Z,6.85
2022-11-16T09:06:16.618Z,6.91
2022-11-16T09:09:06.414Z,6.92
2022-11-16T09:11:57.163Z,6.99
2022-11-16T09:14:46.454Z,7.08
2022-11-16T09:17:37.164Z,7.09
2022-11-16T09:20:27.468Z,7.14
2022-11-16T09:23:20.929Z,7.20
2022-11-16T09:26:14.702Z,7.23
2022-11-16T09:29:04.704Z,7.29
2022-11-16T09:31:53.924Z,7.31
2022-11-16T09:34:44.659Z,7.35
2022-11-16T09:37:33.950Z,7.45
2022-11-16T09:40:23.802Z,7.50
2022-11-16T09:43:28.299Z,7.57
2022-11-16T09:46:28.032Z,7.53
2022-11-16T09:49:22.626Z,7.68
2022-11-16T09:52:23.542Z,7.77
2022-11-16T09:55:26.137Z,7.82
2022-11-16T09:58:21.333Z,7.90
2022-11-16T10:01:26.274Z,7.98
2022-11-16T10:04:21.576Z,8.07
2022-11-16T10:07:17.972Z,8.16
2022-11-16T10:10:15.628Z,8.25
2022-11-16T10:13:16.110Z,8.34
2022-11-16T10:16:14.806Z,8.39
2022-11-16T10:19:16.545Z,8.46
2022-11-16T10:22:19.869Z,8.50
2022-11-16T10:25:17.444Z,8.54
2022-11-16T10:28:28.807Z,8.55
2022-11-16T10:31:30.842Z,8.61
2022-11-16T10:34:26.393Z,8.69
2022-11-16T10:37:16.127Z,8.76
2022-11-16T10:40:22.302Z,8.80
2022-11-16T10:43:16.551Z,8.90
2022-11-16T10:46:15.619Z,8.96
2022-11-16T10:49:12.111Z,9.06
2022-11-16T10:52:01.534Z,9.16
2022-11-16T10:54:51.315Z,9.20
2022-11-16T11:00:45.575Z,9.42
2022-11-16T11:03:35.464Z,9.49
2022-11-16T11:06:27.845Z,9.57
2022-11-16T11:09:29.696Z,9.63
2022-11-16T11:12:41.883Z,9.73
2022-11-16T11:15:31.506Z,10.17
2022-11-16T11:18:30.208Z,11.27
2022-11-16T11:21:24.251Z,12.76
2022-11-16T11:24:43.452Z,14.32
2022-11-16T11:27:35.056Z,15.88
2022-11-16T11:30:25.129Z,17.15
2022-11-16T11:33:17.257Z,18.20
2022-11-16T11:36:14.150Z,19.10
2022-11-16T11:39:08.106Z,19.91
2022-11-16T11:42:22.228Z,20.58
2022-11-16T11:45:16.663Z,21.05
2022-11-16T11:48:22.548Z,21.45
2022-11-16T11:51:23.354Z,21.78
2022-11-16T11:54:24.222Z,22.16
2022-11-16T11:57:20.621Z,22.46
2022-11-16T12:00:14.789Z,22.69
2022-11-16T12:03:41.196Z,22.70
2022-11-16T12:06:43.749Z,22.55
2022-11-16T12:09:44.321Z,22.12
2022-11-16T12:12:52.691Z,21.78
2022-11-16T12:16:00.247Z,21.32
2022-11-16T12:19:21.177Z,20.72
2022-11-16T12:22:31.266Z,19.99
2022-11-16T12:25:27.510Z,19.42
2022-11-16T12:28:35.244Z,19.02
2022-11-16T12:31:54.279Z,18.61
2022-11-16T12:35:02.285Z,18.43
2022-11-16T12:38:05.137Z,18.22
2022-11-16T12:41:34.214Z,18.20
2022-11-16T12:44:38.915Z,18.09
2022-11-16T12:47:44.425Z,18.07
2022-11-16T12:50:52.903Z,18.19
2022-11-16T12:54:06.275Z,18.29
2022-11-16T12:57:08.456Z,18.32
2022-11-16T13:00:09.182Z,18.38
2022-11-16T13:03:15.397Z,18.39
2022-11-16T13:06:08.778Z,18.50
2022-11-16T13:09:07.984Z,18.43
2022-11-16T13:12:01.915Z,18.30
2022-11-16T13:14:54.985Z,18.12
2022-11-16T13:17:44.546Z,18.23
2022-11-16T13:20:46.276Z,18.21
2022-11-16T13:23:48.931Z,17.93
2022-11-16T13:26:46.166Z,17.38
2022-11-16T13:29:44.487Z,16.63
2022-11-16T13:32:57.432Z,15.97
2022-11-16T13:35:46.820Z,15.45
2022-11-16T13:38:53.471Z,15.02
2022-11-16T13:41:45.644Z,14.71
2022-11-16T13:44:35.967Z,14.50
2022-11-16T13:47:30.514Z,14.41
2022-11-16T13:50:23.081Z,14.40
2022-11-16T13:56:52.713Z,14.39
2022-11-16T13:59:42.386Z,14.27
2022-11-16T14:02:34.247Z,14.15
2022-11-16T14:05:41.782Z,14.05
2022-11-16T14:08:51.012Z,13.90
2022-11-16T14:11:41.575Z,13.79
2022-11-16T14:15:13.969Z,13.68
2022-11-16T14:18:33.027Z,13.58
2022-11-16T14:21:40.546Z,13.44
2022-11-16T14:24:35.124Z,13.43
2022-11-16T14:27:31.879Z,13.30
2022-11-16T14:30:26.509Z,13.24
2022-11-16T14:33:35.081Z,13.15
2022-11-16T14:36:41.404Z,13.16
2022-11-16T14:39:41.330Z,13.12
2022-11-16T14:42:48.141Z,13.10
2022-11-16T14:45:50.362Z,13.08
2022-11-16T14:48:47.156Z,13.06
2022-11-16T14:51:40.833Z,13.04
2022-11-16T14:54:39.279Z,13.04
2022-11-16T14:57:28.664Z,12.97
2022-11-16T15:00:25.906Z,12.97
2022-11-16T15:03:16.632Z,12.87
2022-11-16T15:06:08.846Z,12.84
2022-11-16T15:09:03.455Z,12.79
2022-11-16T15:12:10.960Z,12.78
2022-11-16T15:15:07.927Z,12.75
2022-11-16T15:18:13.207Z,12.71
2022-11-16T15:21:03.958Z,12.63
2022-11-16T15:24:23.631Z,12.63
2022-11-16T15:27:13.947Z,12.50
2022-11-16T15:30:15.046Z,12.46
2022-11-16T15:33:11.503Z,12.39
2022-11-16T15:36:01.083Z,12.30
2022-11-16T15:38:54.404Z,12.26
2022-11-16T15:41:44.205Z,12.25
2022-11-16T15:44:34.397Z,12.19
2022-11-16T15:47:25.621Z,12.08
2022-11-16T15:50:19.597Z,12.06
2022-11-16T15:53:36.795Z,11.95
2022-11-16T15:56:34.069Z,11.94
2022-11-16T15:59:29.265Z,11.87
2022-11-16T16:02:22.100Z,11.82
2022-11-16T16:05:23.997Z,11.72
2022-11-16T16:08:33.429Z,11.65
2022-11-16T16:11:30.921Z,11.58
2022-11-16T16:14:27.811Z,11.47
2022-11-16T16:17:26.158Z,11.37
2022-11-16T16:20:19.966Z,11.31
2022-11-16T16:23:15.358Z,11.20
2022-11-16T16:26:05.551Z,11.16
2022-11-16T16:28:56.878Z,11.08
2022-11-16T16:31:46.432Z,11.04
2022-11-16T16:34:39.258Z,11.00
2022-11-16T16:37:33.481Z,10.95
2022-11-16T16:40:22.988Z,11.03
2022-11-16T16:43:12.420Z,11.04
2022-11-16T16:46:05.153Z,11.09
2022-11-16T16:48:54.995Z,11.08
2022-11-16T16:51:44.391Z,11.11
2022-11-16T16:54:33.706Z,11.09
2022-11-16T16:57:23.116Z,11.05
2022-11-16T17:00:14.047Z,10.99
2022-11-16T17:03:04.927Z,10.87
2022-11-16T17:05:54.595Z,10.87
2022-11-16T17:08:43.808Z,10.87
2022-11-16T17:11:33.129Z,10.86
2022-11-16T17:14:24.614Z,10.85
2022-11-16T17:17:14.199Z,10.86
2022-11-16T17:20:06.225Z,10.85
2022-11-16T17:22:55.605Z,10.89
2022-11-16T17:25:45.207Z,10.93
2022-11-16T17:28:35.298Z,10.95
2022-11-16T17:31:25.725Z,10.97
2022-11-16T17:34:15.401Z,10.98
2022-11-16T17:37:06.252Z,11.00
2022-11-16T17:39:55.604Z,10.95
2022-11-16T17:42:45.246Z,10.98
2022-11-16T17:45:34.529Z,10.92
2022-11-16T17:48:23.803Z,10.92
2022-11-16T17:51:14.967Z,10.90
2022-11-16T17:54:06.101Z,10.88
2022-11-16T17:56:55.362Z,10.85
2022-11-16T17:59:44.755Z,10.78
2022-11-16T18:02:34.036Z,10.72
2022-11-16T18:05:23.416Z,10.62
2022-11-16T18:08:13.533Z,10.48
2022-11-16T18:11:19.683Z,10.43
2022-11-16T18:14:10.648Z,10.34
2022-11-16T18:17:00.074Z,10.28
2022-11-16T18:19:49.387Z,10.33
2022-11-16T18:22:39.030Z,10.33
2022-11-16T18:25:28.443Z,10.29
2022-11-16T18:28:20.658Z,10.27
2022-11-16T18:31:13.303Z,10.21
2022-11-16T18:34:03.179Z,10.17
2022-11-16T18:36:52.548Z,10.18
2022-11-16T18:39:41.882Z,10.18
2022-11-16T18:42:31.778Z,10.19
2022-11-16T18:45:22.785Z,10.21
2022-11-16T18:48:12.118Z,10.23
2022-11-16T18:51:01.964Z,10.21
2022-11-16T18:53:51.893Z,10.23
2022-11-16T18:56:41.383Z,10.28
2022-11-16T18:59:30.685Z,10.32
2022-11-16T19:02:21.678Z,10.38
2022-11-16T19:05:11.223Z,10.42
2022-11-16T19:08:00.534Z,10.43
2022-11-16T19:10:50.213Z,10.51
2022-11-16T19:13:40.807Z,10.54
2022-11-16T19:16:30.878Z,10.55
2022-11-16T19:19:21.812Z,10.61
2022-11-16T19:22:11.147Z,10.65
2022-11-16T19:25:05.873Z,10.72
2022-11-16T19:27:55.568Z,10.72
2022-11-16T19:30:44.922Z,10.75
2022-11-16T19:33:34.488Z,10.76
2022-11-16T19:36:26.694Z,10.75
2022-11-16T19:39:16.066Z,10.73
2022-11-16T19:42:05.988Z,10.75
2022-11-16T19:44:55.305Z,10.74
2022-11-16T19:47:44.754Z,10.71
2022-11-16T19:50:35.889Z,10.71
2022-11-16T19:53:26.990Z,10.62
2022-11-16T19:56:18.785Z,10.67
2022-11-16T19:59:08.164Z,10.68
2022-11-16T20:01:57.789Z,10.71
2022-11-16T20:04:47.134Z,10.69
2022-11-16T20:07:38.972Z,10.68
2022-11-16T20:10:32.387Z,10.62
2022-11-16T20:13:22.138Z,10.74
2022-11-16T20:16:14.346Z,10.71
2022-11-16T20:19:04.421Z,10.76
2022-11-16T20:21:55.440Z,10.76
2022-11-16T20:24:45.033Z,10.79
2022-11-16T20:27:36.073Z,10.77
2022-11-16T20:30:25.421Z,10.79
2022-11-16T20:33:15.092Z,10.78
2022-11-16T20:36:05.939Z,10.77
2022-11-16T20:38:55.985Z,10.79
2022-11-16T20:41:45.603Z,10.81
2022-11-16T20:44:36.621Z,10.84
2022-11-16T20:47:28.236Z,10.78
2022-11-16T20:50:19.530Z,10.82
2022-11-16T20:53:08.979Z,10.82
2022-11-16T20:55:59.594Z,10.84
2022-11-16T20:58:51.302Z,10.74
2022-11-16T21:01:47.858Z,10.76
2022-11-16T21:04:38.658Z,10.76
2022-11-16T21:07:30.853Z,10.72
2022-11-16T21:10:21.502Z,10.75
2022-11-16T21:13:35.533Z,10.79
2022-11-16T21:16:25.565Z,10.70
2022-11-16T21:19:17.292Z,10.68
2022-11-16T21:22:07.888Z,10.70
2022-11-16T21:24:57.912Z,10.59
2022-11-16T21:27:47.530Z,10.61
2022-11-16T21:30:41.050Z,10.68
2022-11-16T21:33:32.796Z,10.63
2022-11-16T21:36:26.491Z,10.59
2022-11-16T21:39:16.039Z,10.51
2022-11-16T21:42:06.911Z,10.55
2022-11-16T21:44:56.683Z,10.40
2022-11-16T21:47:46.460Z,10.45
2022-11-16T21:50:36.864Z,10.43
2022-11-16T21:53:27.703Z,10.33
2022-11-16T21:56:20.322Z,10.32
2022-11-16T21:59:10.035Z,10.24
2022-11-16T22:02:02.325Z,10.23
2022-11-16T22:05:09.346Z,10.14
2022-11-16T22:07:58.590Z,10.11
2022-11-16T22:10:52.635Z,10.01
2022-11-16T22:13:43.165Z,10.06
2022-11-16T22:16:32.544Z,9.97
2022-11-16T22:19:22.276Z,9.92
2022-11-16T22:22:11.695Z,9.92
2022-11-16T22:25:01.329Z,9.90
2022-11-16T22:28:19.065Z,9.91
2022-11-16T22:31:03.192Z,9.91
2022-11-16T22:33:54.725Z,9.93
2022-11-16T22:36:43.972Z,9.98
2022-11-16T22:39:33.568Z,9.96
2022-11-16T22:42:23.248Z,9.94
2022-11-16T22:45:14.728Z,10.00
2022-11-16T22:48:04.059Z,9.98
2022-11-16T22:51:05.180Z,9.98
2022-11-16T22:53:55.739Z,9.96
2022-11-16T22:56:45.377Z,9.94
2022-11-16T22:59:35.215Z,9.97
2022-11-16T23:02:26.247Z,9.97
2022-11-16T23:05:16.334Z,9.99
2022-11-16T23:08:06.410Z,10.01
2022-11-16T23:11:18.761Z,9.99
2022-11-16T23:14:31.256Z,10.02
2022-11-16T23:17:20.772Z,10.08
2022-11-16T23:20:30.379Z,10.01
2022-11-16T23:23:38.252Z,10.08
2022-11-16T23:26:45.119Z,10.06
2022-11-16T23:29:34.701Z,10.08
2022-11-16T23:32:24.215Z,10.08
2022-11-16T23:35:15.572Z,10.10
2022-11-16T23:38:07.562Z,10.08
2022-11-16T23:40:58.627Z,10.06
2022-11-16T23:43:59.819Z,10.08
2022-11-16T23:46:49.382Z,10.04
2022-11-16T23:49:39.317Z,10.06
2022-11-16T23:52:30.362Z,10.04
2022-11-16T23:55:19.863Z,10.03
2022-11-16T23:58:14.713Z,9.95
